sensor_id;sensor_type;location;lat;lon;timestamp;pressure;altitude;pressure_sealevel;temperature;humidity
40073;BME280;25774;52.256;9.356;2023-02-16T00:01:46;101260.97;;;2.13;100.00
40073;BME280;25774;52.256;9.356;2023-02-16T00:04:30;101267.03;;;2.15;100.00
40073;BME280;25774;52.256;9.356;2023-02-16T00:06:56;101273.09;;;2.19;100.00
40073;BME280;25774;52.256;9.356;2023-02-16T00:09:23;101267.09;;;2.06;100.00
40073;BME280;25774;52.256;9.356;2023-02-16T00:11:49;101266.13;;;2.24;100.00
40073;BME280;25774;52.256;9.356;2023-02-16T00:14:35;101267.97;;;2.05;100.00
40073;BME280;25774;52.256;9.356;2023-02-16T00:17:00;101254.16;;;1.95;100.00
40073;BME280;25774;52.256;9.356;2023-02-16T00:19:38;101255.81;;;2.04;100.00
40073;BME280;25774;52.256;9.356;2023-02-16T00:22:05;101262.75;;;2.03;100.00
40073;BME280;25774;52.256;9.356;2023-02-16T00:24:31;101254.09;;;2.07;100.00
40073;BME280;25774;52.256;9.356;2023-02-16T00:26:58;101251.53;;;1.94;100.00
40073;BME280;25774;52.256;9.356;2023-02-16T00:29:32;101262.78;;;2.05;100.00
40073;BME280;25774;52.256;9.356;2023-02-16T00:31:59;101241.97;;;1.97;100.00
40073;BME280;25774;52.256;9.356;2023-02-16T00:34:29;101241.16;;;1.88;100.00
40073;BME280;25774;52.256;9.356;2023-02-16T00:36:57;101248.94;;;1.94;100.00
40073;BME280;25774;52.256;9.356;2023-02-16T00:39:23;101261.88;;;2.06;100.00
40073;BME280;25774;52.256;9.356;2023-02-16T00:41:50;101252.47;;;1.83;100.00
40073;BME280;25774;52.256;9.356;2023-02-16T00:44:30;101252.50;;;1.82;100.00
40073;BME280;25774;52.256;9.356;2023-02-16T00:46:56;101255.03;;;1.88;100.00
40073;BME280;25774;52.256;9.356;2023-02-16T00:49:23;101251.56;;;1.91;100.00
40073;BME280;25774;52.256;9.356;2023-02-16T00:51:49;101263.72;;;1.92;100.00
40073;BME280;25774;52.256;9.356;2023-02-16T00:54:14;101247.38;;;1.65;100.00
40073;BME280;25774;52.256;9.356;2023-02-16T00:56:42;101264.59;;;1.89;100.00
40073;BME280;25774;52.256;9.356;2023-02-16T00:59:15;101262.81;;;1.96;100.00
40073;BME280;25774;52.256;9.356;2023-02-16T01:01:42;101254.03;;;2.10;100.00
40073;BME280;25774;52.256;9.356;2023-02-16T01:04:11;101256.53;;;2.27;100.00
40073;BME280;25774;52.256;9.356;2023-02-16T01:06:41;101233.28;;;2.00;100.00
40073;BME280;25774;52.256;9.356;2023-02-16T01:09:25;101232.47;;;1.90;100.00
40073;BME280;25774;52.256;9.356;2023-02-16T01:12:14;101234.19;;;1.96;100.00
40073;BME280;25774;52.256;9.356;2023-02-16T01:14:41;101232.41;;;1.98;100.00
40073;BME280;25774;52.256;9.356;2023-02-16T01:17:09;101237.63;;;2.02;100.00
40073;BME280;25774;52.256;9.356;2023-02-16T01:19:35;101236.75;;;2.05;100.00
40073;BME280;25774;52.256;9.356;2023-02-16T01:22:00;101234.97;;;2.04;100.00
40073;BME280;25774;52.256;9.356;2023-02-16T01:24:26;101243.63;;;2.12;100.00
40073;BME280;25774;52.256;9.356;2023-02-16T01:26:51;101234.19;;;1.96;100.00
40073;BME280;25774;52.256;9.356;2023-02-16T01:29:19;101219.47;;;1.87;100.00
40073;BME280;25774;52.256;9.356;2023-02-16T01:31:45;101225.53;;;1.92;100.00
40073;BME280;25774;52.256;9.356;2023-02-16T01:34:11;101234.22;;;1.93;100.00
40073;BME280;25774;52.256;9.356;2023-02-16T01:36:38;101235.03;;;1.96;100.00
40073;BME280;25774;52.256;9.356;2023-02-16T01:39:04;101230.91;;;1.65;100.00
40073;BME280;25774;52.256;9.356;2023-02-16T01:42:10;101235.16;;;1.75;100.00
40073;BME280;25774;52.256;9.356;2023-02-16T01:44:43;101223.09;;;1.69;100.00
40073;BME280;25774;52.256;9.356;2023-02-16T01:47:34;101231.78;;;1.63;100.00
40073;BME280;25774;52.256;9.356;2023-02-16T01:50:15;101231.69;;;1.77;100.00
40073;BME280;25774;52.256;9.356;2023-02-16T01:52:43;101234.34;;;1.73;100.00
40073;BME280;25774;52.256;9.356;2023-02-16T01:55:23;101214.38;;;1.76;100.00
40073;BME280;25774;52.256;9.356;2023-02-16T01:58:02;101207.41;;;1.77;100.00
40073;BME280;25774;52.256;9.356;2023-02-16T02:03:17;101197.16;;;1.49;100.00
40073;BME280;25774;52.256;9.356;2023-02-16T02:06:01;101197.19;;;1.40;100.00
40073;BME280;25774;52.256;9.356;2023-02-16T02:08:37;101194.66;;;1.26;100.00
40073;BME280;25774;52.256;9.356;2023-02-16T02:11:14;101204.09;;;1.50;100.00
40073;BME280;25774;52.256;9.356;2023-02-16T02:13:52;101217.97;;;1.49;100.00
40073;BME280;25774;52.256;9.356;2023-02-16T02:16:21;101205.88;;;1.39;100.00
40073;BME280;25774;52.256;9.356;2023-02-16T02:18:48;101230.94;;;1.55;100.00
40073;BME280;25774;52.256;9.356;2023-02-16T02:28:18;101228.28;;;1.68;100.00
40073;BME280;25774;52.256;9.356;2023-02-16T02:30:43;101208.50;;;1.41;100.00
40073;BME280;25774;52.256;9.356;2023-02-16T02:36:11;101210.22;;;1.38;100.00
40073;BME280;25774;52.256;9.356;2023-02-16T02:44:24;101215.41;;;1.37;100.00
40073;BME280;25774;52.256;9.356;2023-02-16T02:46:53;101218.03;;;1.35;100.00
40073;BME280;25774;52.256;9.356;2023-02-16T02:49:19;101221.47;;;1.42;100.00
40073;BME280;25774;52.256;9.356;2023-02-16T02:51:44;101230.16;;;1.44;100.00
40073;BME280;25774;52.256;9.356;2023-02-16T02:57:10;101230.16;;;1.41;100.00
40073;BME280;25774;52.256;9.356;2023-02-16T03:00:00;101232.75;;;1.39;100.00
40073;BME280;25774;52.256;9.356;2023-02-16T03:02:48;101232.75;;;1.41;100.00
40073;BME280;25774;52.256;9.356;2023-02-16T03:05:17;101254.31;;;1.69;100.00
40073;BME280;25774;52.256;9.356;2023-02-16T03:07:45;101243.13;;;1.46;100.00
40073;BME280;25774;52.256;9.356;2023-02-16T03:10:19;101241.44;;;1.32;100.00
40073;BME280;25774;52.256;9.356;2023-02-16T03:13:15;101234.50;;;1.41;100.00
40073;BME280;25774;52.256;9.356;2023-02-16T03:15:43;101235.31;;;1.46;100.00
40073;BME280;25774;52.256;9.356;2023-02-16T03:18:11;101244.84;;;1.50;100.00
40073;BME280;25774;52.256;9.356;2023-02-16T03:20:57;101245.75;;;1.44;100.00
40073;BME280;25774;52.256;9.356;2023-02-16T03:23:44;101238.81;;;1.45;100.00
40073;BME280;25774;52.256;9.356;2023-02-16T03:26:30;101243.13;;;1.43;100.00
40073;BME280;25774;52.256;9.356;2023-02-16T03:29:15;101236.31;;;1.19;100.00
40073;BME280;25774;52.256;9.356;2023-02-16T03:31:47;101248.38;;;1.32;100.00
40073;BME280;25774;52.256;9.356;2023-02-16T03:34:14;101250.13;;;1.24;100.00
40073;BME280;25774;52.256;9.356;2023-02-16T03:36:42;101244.94;;;1.28;100.00
40073;BME280;25774;52.256;9.356;2023-02-16T03:39:09;101242.38;;;1.16;100.00
40073;BME280;25774;52.256;9.356;2023-02-16T03:41:42;101255.31;;;1.37;100.00
40073;BME280;25774;52.256;9.356;2023-02-16T03:44:08;101257.91;;;1.33;100.00
40073;BME280;25774;52.256;9.356;2023-02-16T03:46:33;101265.72;;;1.34;100.00
40073;BME280;25774;52.256;9.356;2023-02-16T03:48:59;101251.88;;;1.20;100.00
40073;BME280;25774;52.256;9.356;2023-02-16T03:51:24;101272.63;;;1.40;100.00
40073;BME280;25774;52.256;9.356;2023-02-16T03:53:49;101260.53;;;1.30;100.00
40073;BME280;25774;52.256;9.356;2023-02-16T03:56:15;101256.16;;;1.36;100.00
40073;BME280;25774;52.256;9.356;2023-02-16T03:58:40;101252.72;;;1.31;100.00
40073;BME280;25774;52.256;9.356;2023-02-16T04:01:06;101247.53;;;1.31;100.00
40073;BME280;25774;52.256;9.356;2023-02-16T04:03:31;101250.94;;;1.50;100.00
40073;BME280;25774;52.256;9.356;2023-02-16T04:05:58;101246.63;;;1.34;100.00
40073;BME280;25774;52.256;9.356;2023-02-16T04:08:23;101243.19;;;1.29;100.00
40073;BME280;25774;52.256;9.356;2023-02-16T04:10:49;101255.28;;;1.39;100.00
40073;BME280;25774;52.256;9.356;2023-02-16T04:13:14;101256.16;;;1.33;100.00
40073;BME280;25774;52.256;9.356;2023-02-16T04:15:39;101253.59;;;1.29;100.00
40073;BME280;25774;52.256;9.356;2023-02-16T04:18:09;101242.41;;;1.10;100.00
40073;BME280;25774;52.256;9.356;2023-02-16T04:20:35;101248.41;;;1.29;100.00
40073;BME280;25774;52.256;9.356;2023-02-16T04:23:01;101245.78;;;1.27;100.00
40073;BME280;25774;52.256;9.356;2023-02-16T04:25:27;101245.78;;;1.35;100.00
40073;BME280;25774;52.256;9.356;2023-02-16T04:27:52;101232.81;;;1.24;100.00
40073;BME280;25774;52.256;9.356;2023-02-16T04:30:21;101236.28;;;1.31;100.00
40073;BME280;25774;52.256;9.356;2023-02-16T04:32:47;101237.94;;;1.39;100.00
40073;BME280;25774;52.256;9.356;2023-02-16T04:35:13;101239.72;;;1.33;100.00
40073;BME280;25774;52.256;9.356;2023-02-16T04:37:38;101226.75;;;1.24;100.00
40073;BME280;25774;52.256;9.356;2023-02-16T04:40:05;101230.28;;;1.12;100.00
40073;BME280;25774;52.256;9.356;2023-02-16T04:42:32;101218.13;;;1.05;100.00
40073;BME280;25774;52.256;9.356;2023-02-16T04:44:57;101218.16;;;1.00;100.00
40073;BME280;25774;52.256;9.356;2023-02-16T04:47:23;101227.63;;;1.20;100.00
40073;BME280;25774;52.256;9.356;2023-02-16T04:49:51;101226.75;;;1.17;100.00
40073;BME280;25774;52.256;9.356;2023-02-16T04:52:16;101232.81;;;1.24;100.00
40073;BME280;25774;52.256;9.356;2023-02-16T04:54:42;101231.09;;;1.23;100.00
40073;BME280;25774;52.256;9.356;2023-02-16T04:57:08;101230.19;;;1.27;100.00
40073;BME280;25774;52.256;9.356;2023-02-16T04:59:33;101233.69;;;1.23;100.00
40073;BME280;25774;52.256;9.356;2023-02-16T05:01:58;101231.97;;;1.11;100.00
40073;BME280;25774;52.256;9.356;2023-02-16T05:04:24;101245.00;;;1.13;100.00
40073;BME280;25774;52.256;9.356;2023-02-16T05:06:50;101249.28;;;1.23;100.00
40073;BME280;25774;52.256;9.356;2023-02-16T05:09:16;101255.34;;;1.21;100.00
40073;BME280;25774;52.256;9.356;2023-02-16T05:11:41;101257.94;;;1.28;100.00
40073;BME280;25774;52.256;9.356;2023-02-16T05:14:27;101262.25;;;1.29;100.00
40073;BME280;25774;52.256;9.356;2023-02-16T05:17:15;101241.56;;;0.96;100.00
40073;BME280;25774;52.256;9.356;2023-02-16T05:19:41;101242.41;;;1.04;100.00
40073;BME280;25774;52.256;9.356;2023-02-16T05:22:07;101243.28;;;1.06;100.00
40073;BME280;25774;52.256;9.356;2023-02-16T05:24:33;101244.16;;;1.06;100.00
40073;BME280;25774;52.256;9.356;2023-02-16T05:27:00;101253.59;;;1.21;100.00
40073;BME280;25774;52.256;9.356;2023-02-16T05:29:25;101243.28;;;1.09;100.00
40073;BME280;25774;52.256;9.356;2023-02-16T05:31:51;101254.50;;;1.22;100.00
40073;BME280;25774;52.256;9.356;2023-02-16T05:34:16;101251.03;;;1.13;100.00
40073;BME280;25774;52.256;9.356;2023-02-16T05:36:42;101262.25;;;1.29;100.00
40073;BME280;25774;52.256;9.356;2023-02-16T05:39:07;101249.31;;;1.08;100.00
40073;BME280;25774;52.256;9.356;2023-02-16T05:41:32;101252.75;;;1.24;100.00
40073;BME280;25774;52.256;9.356;2023-02-16T05:43:59;101244.13;;;1.12;100.00
40073;BME280;25774;52.256;9.356;2023-02-16T05:46:27;101239.84;;;0.91;100.00
40073;BME280;25774;52.256;9.356;2023-02-16T05:48:54;101254.53;;;1.03;100.00
40073;BME280;25774;52.256;9.356;2023-02-16T05:51:20;101257.13;;;1.02;100.00
40073;BME280;25774;52.256;9.356;2023-02-16T05:53:45;101260.56;;;1.16;100.00
40073;BME280;25774;52.256;9.356;2023-02-16T05:56:12;101247.59;;;1.05;100.00
40073;BME280;25774;52.256;9.356;2023-02-16T05:58:38;101258.06;;;0.84;100.00
40073;BME280;25774;52.256;9.356;2023-02-16T06:01:03;101263.22;;;1.02;100.00
40073;BME280;25774;52.256;9.356;2023-02-16T06:03:29;101272.72;;;1.08;100.00
40073;BME280;25774;52.256;9.356;2023-02-16T06:05:57;101277.06;;;1.06;100.00
40073;BME280;25774;52.256;9.356;2023-02-16T06:08:23;101277.91;;;1.08;100.00
40073;BME280;25774;52.256;9.356;2023-02-16T06:10:50;101271.88;;;0.95;100.00
40073;BME280;25774;52.256;9.356;2023-02-16T06:13:16;101289.16;;;1.14;100.00
40073;BME280;25774;52.256;9.356;2023-02-16T06:15:41;101269.28;;;1.06;100.00
40073;BME280;25774;52.256;9.356;2023-02-16T06:18:09;101276.16;;;1.14;100.00
40073;BME280;25774;52.256;9.356;2023-02-16T06:20:36;101268.41;;;1.04;100.00
40073;BME280;25774;52.256;9.356;2023-02-16T06:23:01;101254.53;;;1.06;100.00
40073;BME280;25774;52.256;9.356;2023-02-16T06:25:26;101270.09;;;1.17;100.00
40073;BME280;25774;52.256;9.356;2023-02-16T06:27:52;101277.88;;;1.23;100.00
40073;BME280;25774;52.256;9.356;2023-02-16T06:30:17;101269.25;;;1.12;100.00
40073;BME280;25774;52.256;9.356;2023-02-16T06:32:43;101281.38;;;1.19;100.00
40073;BME280;25774;52.256;9.356;2023-02-16T06:35:08;101279.66;;;1.13;100.00
40073;BME280;25774;52.256;9.356;2023-02-16T06:37:34;101295.19;;;1.24;100.00
40073;BME280;25774;52.256;9.356;2023-02-16T06:39:59;101290.00;;;1.30;100.00
40073;BME280;25774;52.256;9.356;2023-02-16T06:42:25;101275.34;;;1.06;100.00
40073;BME280;25774;52.256;9.356;2023-02-16T06:44:50;101292.53;;;1.46;100.00
40073;BME280;25774;52.256;9.356;2023-02-16T06:47:15;101264.00;;;1.27;100.00
40073;BME280;25774;52.256;9.356;2023-02-16T06:49:41;101265.75;;;1.21;100.00
40073;BME280;25774;52.256;9.356;2023-02-16T06:52:07;101276.97;;;1.33;100.00
40073;BME280;25774;52.256;9.356;2023-02-16T06:54:32;101279.59;;;1.35;100.00
40073;BME280;25774;52.256;9.356;2023-02-16T06:56:58;101265.72;;;1.34;100.00
40073;BME280;25774;52.256;9.356;2023-02-16T06:59:24;101281.31;;;1.33;100.00
40073;BME280;25774;52.256;9.356;2023-02-16T07:01:49;101281.28;;;1.45;100.00
40073;BME280;25774;52.256;9.356;2023-02-16T07:04:14;101292.53;;;1.53;100.00
40073;BME280;25774;52.256;9.356;2023-02-16T07:06:40;101285.59;;;1.51;100.00
40073;BME280;25774;52.256;9.356;2023-02-16T07:09:05;101274.25;;;1.64;100.00
40073;BME280;25774;52.256;9.356;2023-02-16T07:11:32;101275.22;;;1.45;100.00
40073;BME280;25774;52.256;9.356;2023-02-16T07:13:57;101276.94;;;1.46;100.00
40073;BME280;25774;52.256;9.356;2023-02-16T07:16:23;101282.09;;;1.58;100.00
40073;BME280;25774;52.256;9.356;2023-02-16T07:18:48;101278.63;;;1.57;100.00
40073;BME280;25774;52.256;9.356;2023-02-16T07:21:14;101284.63;;;1.72;100.00
40073;BME280;25774;52.256;9.356;2023-02-16T07:23:39;101281.97;;;1.81;100.00
40073;BME280;25774;52.256;9.356;2023-02-16T07:26:04;101283.63;;;1.97;100.00
40073;BME280;25774;52.256;9.356;2023-02-16T07:28:30;101270.72;;;1.82;100.00
40073;BME280;25774;52.256;9.356;2023-02-16T07:30:55;101280.16;;;2.00;100.00
40073;BME280;25774;52.256;9.356;2023-02-16T07:33:20;101289.44;;;2.36;100.00
40073;BME280;25774;52.256;9.356;2023-02-16T07:35:46;101282.44;;;2.44;100.00
40073;BME280;25774;52.256;9.356;2023-02-16T07:38:11;101285.63;;;2.82;100.00
40073;BME280;25774;52.256;9.356;2023-02-16T07:40:37;101263.97;;;2.70;100.00
40073;BME280;25774;52.256;9.356;2023-02-16T07:43:03;101263.06;;;2.76;100.00
40073;BME280;25774;52.256;9.356;2023-02-16T07:45:29;101246.75;;;2.54;100.00
40073;BME280;25774;52.256;9.356;2023-02-16T07:47:57;101252.69;;;2.71;100.00
40073;BME280;25774;52.256;9.356;2023-02-16T07:50:23;101265.50;;;2.94;100.00
40073;BME280;25774;52.256;9.356;2023-02-16T07:52:48;101246.50;;;2.85;100.00
40073;BME280;25774;52.256;9.356;2023-02-16T07:55:13;101225.81;;;2.65;100.00
40073;BME280;25774;52.256;9.356;2023-02-16T07:57:39;101225.75;;;2.71;100.00
40073;BME280;25774;52.256;9.356;2023-02-16T08:00:06;101223.94;;;2.77;100.00
40073;BME280;25774;52.256;9.356;2023-02-16T08:02:32;101228.09;;;3.00;100.00
40073;BME280;25774;52.256;9.356;2023-02-16T08:04:58;101234.81;;;3.19;100.00
40073;BME280;25774;52.256;9.356;2023-02-16T08:07:25;101241.41;;;3.51;100.00
40073;BME280;25774;52.256;9.356;2023-02-16T08:09:50;101239.84;;;4.00;100.00
40073;BME280;25774;52.256;9.356;2023-02-16T08:12:16;101211.38;;;3.80;100.00
40073;BME280;25774;52.256;9.356;2023-02-16T08:14:42;101208.78;;;3.80;100.00
40073;BME280;25774;52.256;9.356;2023-02-16T08:17:08;101222.06;;;4.23;100.00
40073;BME280;25774;52.256;9.356;2023-02-16T08:19:33;101201.31;;;4.15;100.00
40073;BME280;25774;52.256;9.356;2023-02-16T08:22:00;101202.31;;;4.58;100.00
40073;BME280;25774;52.256;9.356;2023-02-16T08:24:27;101186.94;;;4.41;100.00
40073;BME280;25774;52.256;9.356;2023-02-16T08:26:53;101183.81;;;4.70;100.00
40073;BME280;25774;52.256;9.356;2023-02-16T08:29:20;101177.81;;;5.08;100.00
40073;BME280;25774;52.256;9.356;2023-02-16T08:31:46;101181.72;;;5.31;100.00
40073;BME280;25774;52.256;9.356;2023-02-16T08:34:14;101165.56;;;5.10;100.00
40073;BME280;25774;52.256;9.356;2023-02-16T08:36:41;101136.25;;;4.95;100.00
40073;BME280;25774;52.256;9.356;2023-02-16T08:39:13;101118.38;;;4.72;100.00
40073;BME280;25774;52.256;9.356;2023-02-16T08:41:41;101124.09;;;4.47;100.00
40073;BME280;25774;52.256;9.356;2023-02-16T08:44:07;101116.25;;;4.47;100.00
40073;BME280;25774;52.256;9.356;2023-02-16T08:46:35;101127.34;;;4.60;100.00
40073;BME280;25774;52.256;9.356;2023-02-16T08:49:02;101127.59;;;4.46;100.00
40073;BME280;25774;52.256;9.356;2023-02-16T08:51:29;101113.03;;;4.33;100.00
40073;BME280;25774;52.256;9.356;2023-02-16T08:53:57;101128.00;;;4.25;100.00
40073;BME280;25774;52.256;9.356;2023-02-16T08:56:22;101147.38;;;4.59;100.00
40073;BME280;25774;52.256;9.356;2023-02-16T08:58:48;101143.31;;;4.45;100.00
40073;BME280;25774;52.256;9.356;2023-02-16T09:01:14;101146.34;;;4.68;100.00
40073;BME280;25774;52.256;9.356;2023-02-16T09:03:40;101139.28;;;4.73;100.00
40073;BME280;25774;52.256;9.356;2023-02-16T09:06:09;101133.28;;;4.68;100.00
40073;BME280;25774;52.256;9.356;2023-02-16T09:08:38;101138.06;;;4.91;100.00
40073;BME280;25774;52.256;9.356;2023-02-16T09:11:10;101151.69;;;5.07;100.00
40073;BME280;25774;52.256;9.356;2023-02-16T09:13:37;101127.41;;;5.00;100.00
40073;BME280;25774;52.256;9.356;2023-02-16T09:16:05;101126.41;;;5.06;100.00
40073;BME280;25774;52.256;9.356;2023-02-16T09:18:32;101117.66;;;5.07;100.00
40073;BME280;25774;52.256;9.356;2023-02-16T09:21:05;101129.19;;;5.40;100.00
40073;BME280;25774;52.256;9.356;2023-02-16T09:23:34;101122.78;;;5.53;100.00
40073;BME280;25774;52.256;9.356;2023-02-16T09:26:00;101128.31;;;5.77;100.00
40073;BME280;25774;52.256;9.356;2023-02-16T09:28:27;101121.00;;;5.91;100.00
40073;BME280;25774;52.256;9.356;2023-02-16T09:30:53;101119.59;;;6.14;100.00
40073;BME280;25774;52.256;9.356;2023-02-16T09:33:19;101106.22;;;6.24;100.00
40073;BME280;25774;52.256;9.356;2023-02-16T09:35:45;101100.34;;;6.47;100.00
40073;BME280;25774;52.256;9.356;2023-02-16T09:38:12;101107.00;;;6.61;100.00
40073;BME280;25774;52.256;9.356;2023-02-16T09:40:41;101075.38;;;6.34;100.00
40073;BME280;25774;52.256;9.356;2023-02-16T09:43:30;101084.38;;;6.57;100.00
40073;BME280;25774;52.256;9.356;2023-02-16T09:46:01;101072.81;;;6.33;100.00
40073;BME280;25774;52.256;9.356;2023-02-16T09:48:36;101086.38;;;6.80;100.00
40073;BME280;25774;52.256;9.356;2023-02-16T09:51:04;101073.84;;;6.58;100.00
40073;BME280;25774;52.256;9.356;2023-02-16T09:53:41;101080.63;;;6.65;100.00
40073;BME280;25774;52.256;9.356;2023-02-16T09:56:14;101084.13;;;6.95;100.00
40073;BME280;25774;52.256;9.356;2023-02-16T09:58:48;101055.00;;;6.75;100.00
40073;BME280;25774;52.256;9.356;2023-02-16T10:01:29;101052.25;;;6.80;100.00
40073;BME280;25774;52.256;9.356;2023-02-16T10:09:56;101035.50;;;6.84;100.00
40073;BME280;25774;52.256;9.356;2023-02-16T10:12:28;101008.75;;;6.41;100.00
40073;BME280;25774;52.256;9.356;2023-02-16T10:15:06;101023.16;;;6.58;100.00
40073;BME280;25774;52.256;9.356;2023-02-16T10:23:24;101042.53;;;6.83;100.00
40073;BME280;25774;52.256;9.356;2023-02-16T10:25:56;101057.94;;;6.94;100.00
40073;BME280;25774;52.256;9.356;2023-02-16T10:28:35;101053.38;;;7.01;100.00
40073;BME280;25774;52.256;9.356;2023-02-16T10:31:03;101049.47;;;7.14;100.00
40073;BME280;25774;52.256;9.356;2023-02-16T10:33:41;101058.75;;;7.24;100.00
40073;BME280;25774;52.256;9.356;2023-02-16T10:36:38;101070.16;;;7.79;100.00
40073;BME280;25774;52.256;9.356;2023-02-16T10:39:22;101040.09;;;7.33;100.00
40073;BME280;25774;52.256;9.356;2023-02-16T10:42:05;101061.25;;;7.57;100.00
40073;BME280;25774;52.256;9.356;2023-02-16T10:44:40;101059.66;;;7.79;100.00
40073;BME280;25774;52.256;9.356;2023-02-16T10:47:21;101057.78;;;7.83;100.00
40073;BME280;25774;52.256;9.356;2023-02-16T10:49:49;101050.53;;;7.89;100.00
40073;BME280;25774;52.256;9.356;2023-02-16T10:52:16;101045.56;;;8.07;100.00
40073;BME280;25774;52.256;9.356;2023-02-16T10:54:41;101023.22;;;7.93;100.00
40073;BME280;25774;52.256;9.356;2023-02-16T10:57:22;101039.66;;;8.25;100.00
40073;BME280;25774;52.256;9.356;2023-02-16T10:59:52;100999.75;;;7.62;100.00
40073;BME280;25774;52.256;9.356;2023-02-16T11:02:23;101013.78;;;7.63;100.00
40073;BME280;25774;52.256;9.356;2023-02-16T11:04:54;101023.94;;;7.72;100.00
40073;BME280;25774;52.256;9.356;2023-02-16T11:07:25;101015.69;;;7.58;100.00
40073;BME280;25774;52.256;9.356;2023-02-16T11:09:53;101043.06;;;7.77;100.00
40073;BME280;25774;52.256;9.356;2023-02-16T11:12:35;101038.28;;;8.15;100.00
40073;BME280;25774;52.256;9.356;2023-02-16T11:15:21;100991.75;;;7.67;100.00
40073;BME280;25774;52.256;9.356;2023-02-16T11:18:01;101037.94;;;7.99;100.00
40073;BME280;25774;52.256;9.356;2023-02-16T11:20:34;101028.34;;;7.98;100.00
40073;BME280;25774;52.256;9.356;2023-02-16T11:23:27;101041.78;;;8.41;100.00
40073;BME280;25774;52.256;9.356;2023-02-16T11:25:58;101024.97;;;8.45;100.00
40073;BME280;25774;52.256;9.356;2023-02-16T11:28:32;101003.44;;;8.33;100.00
40073;BME280;25774;52.256;9.356;2023-02-16T11:31:20;100985.13;;;8.55;100.00
40073;BME280;25774;52.256;9.356;2023-02-16T11:36:35;101001.06;;;8.74;100.00
40073;BME280;25774;52.256;9.356;2023-02-16T11:39:12;100978.19;;;8.53;100.00
40073;BME280;25774;52.256;9.356;2023-02-16T11:41:50;100959.31;;;8.42;100.00
40073;BME280;25774;52.256;9.356;2023-02-16T11:44:39;100989.28;;;8.61;100.00
40073;BME280;25774;52.256;9.356;2023-02-16T11:47:31;100980.19;;;8.70;100.00
40073;BME280;25774;52.256;9.356;2023-02-16T11:50:20;100969.72;;;8.90;100.00
40073;BME280;25774;52.256;9.356;2023-02-16T11:52:49;100966.59;;;8.80;100.00
40073;BME280;25774;52.256;9.356;2023-02-16T11:55:33;100958.06;;;8.52;100.00
40073;BME280;25774;52.256;9.356;2023-02-16T11:58:25;100985.16;;;8.54;100.00
40073;BME280;25774;52.256;9.356;2023-02-16T12:00:58;101006.97;;;8.81;100.00
40073;BME280;25774;52.256;9.356;2023-02-16T12:03:35;100965.72;;;8.81;100.00
40073;BME280;25774;52.256;9.356;2023-02-16T12:09:11;100990.28;;;8.80;100.00
40073;BME280;25774;52.256;9.356;2023-02-16T12:11:58;100985.28;;;8.96;100.00
40073;BME280;25774;52.256;9.356;2023-02-16T12:14:51;100964.47;;;8.90;100.00
40073;BME280;25774;52.256;9.356;2023-02-16T12:17:26;100936.06;;;8.76;100.00
40073;BME280;25774;52.256;9.356;2023-02-16T12:20:29;100931.03;;;8.70;100.00
40073;BME280;25774;52.256;9.356;2023-02-16T12:25:53;100915.84;;;8.31;100.00
40073;BME280;25774;52.256;9.356;2023-02-16T12:28:41;100954.22;;;8.60;100.00
40073;BME280;25774;52.256;9.356;2023-02-16T12:31:14;100963.19;;;8.55;100.00
40073;BME280;25774;52.256;9.356;2023-02-16T12:39:21;100923.03;;;8.95;100.00
40073;BME280;25774;52.256;9.356;2023-02-16T12:42:01;100920.38;;;8.51;100.00
40073;BME280;25774;52.256;9.356;2023-02-16T12:44:43;100978.13;;;8.54;100.00
40073;BME280;25774;52.256;9.356;2023-02-16T12:47:15;100940.91;;;8.42;100.00
40073;BME280;25774;52.256;9.356;2023-02-16T12:49:52;100945.91;;;8.49;100.00
40073;BME280;25774;52.256;9.356;2023-02-16T12:52:42;100938.78;;;8.28;100.00
40073;BME280;25774;52.256;9.356;2023-02-16T12:55:27;100951.31;;;8.20;100.00
40073;BME280;25774;52.256;9.356;2023-02-16T13:00:45;100930.44;;;8.85;100.00
40073;BME280;25774;52.256;9.356;2023-02-16T13:03:32;100951.88;;;8.98;100.00
40073;BME280;25774;52.256;9.356;2023-02-16T13:06:13;100932.88;;;9.12;100.00
40073;BME280;25774;52.256;9.356;2023-02-16T13:09:20;100902.75;;;9.19;100.00
40073;BME280;25774;52.256;9.356;2023-02-16T13:12:02;100886.16;;;9.17;100.00
40073;BME280;25774;52.256;9.356;2023-02-16T13:14:32;100907.91;;;9.43;100.00
40073;BME280;25774;52.256;9.356;2023-02-16T13:17:02;100920.09;;;9.86;100.00
40073;BME280;25774;52.256;9.356;2023-02-16T13:19:29;100882.16;;;10.09;100.00
40073;BME280;25774;52.256;9.356;2023-02-16T13:22:12;100844.91;;;9.57;100.00
40073;BME280;25774;52.256;9.356;2023-02-16T13:25:01;100916.72;;;10.03;100.00
40073;BME280;25774;52.256;9.356;2023-02-16T13:27:46;100849.97;;;9.82;100.00
40073;BME280;25774;52.256;9.356;2023-02-16T13:30:53;100827.97;;;9.83;100.00
40073;BME280;25774;52.256;9.356;2023-02-16T13:33:55;100867.59;;;10.19;100.00
40073;BME280;25774;52.256;9.356;2023-02-16T13:39:39;100811.66;;;10.13;100.00
40073;BME280;25774;52.256;9.356;2023-02-16T13:44:57;100822.91;;;9.97;100.00
40073;BME280;25774;52.256;9.356;2023-02-16T13:47:30;100822.47;;;9.88;100.00
40073;BME280;25774;52.256;9.356;2023-02-16T13:49:59;100860.81;;;9.95;100.00
40073;BME280;25774;52.256;9.356;2023-02-16T13:52:26;100826.88;;;9.68;100.00
40073;BME280;25774;52.256;9.356;2023-02-16T13:54:55;100852.31;;;9.88;100.00
40073;BME280;25774;52.256;9.356;2023-02-16T14:05:40;100796.47;;;10.18;100.00
40073;BME280;25774;52.256;9.356;2023-02-16T14:11:07;100791.56;;;10.65;100.00
40073;BME280;25774;52.256;9.356;2023-02-16T14:16:09;100761.88;;;10.43;100.00
40073;BME280;25774;52.256;9.356;2023-02-16T14:18:45;100753.59;;;10.51;100.00
40073;BME280;25774;52.256;9.356;2023-02-16T14:21:38;100780.59;;;10.56;100.00